sensor_id;sensor_type;location;lat;lon;timestamp;P1;durP1;ratioP1;P2;durP2;ratioP2
16300;SDS011;8258;51.020;4.248;2022-08-30T00:00:48;0.00;;;0.00;;
16300;SDS011;8258;51.020;4.248;2022-08-30T00:03:27;0.00;;;0.00;;
16300;SDS011;8258;51.020;4.248;2022-08-30T00:05:55;0.00;;;0.00;;
16300;SDS011;8258;51.020;4.248;2022-08-30T00:08:22;0.00;;;0.00;;
16300;SDS011;8258;51.020;4.248;2022-08-30T00:10:50;0.00;;;0.00;;
16300;SDS011;8258;51.020;4.248;2022-08-30T00:13:18;0.00;;;0.00;;
16300;SDS011;8258;51.020;4.248;2022-08-30T00:15:46;0.00;;;0.00;;
16300;SDS011;8258;51.020;4.248;2022-08-30T00:18:13;0.00;;;0.00;;
16300;SDS011;8258;51.020;4.248;2022-08-30T00:20:42;0.00;;;0.00;;
16300;SDS011;8258;51.020;4.248;2022-08-30T00:23:10;0.00;;;0.00;;
16300;SDS011;8258;51.020;4.248;2022-08-30T00:25:38;0.00;;;0.00;;
16300;SDS011;8258;51.020;4.248;2022-08-30T00:28:06;0.10;;;0.10;;
16300;SDS011;8258;51.020;4.248;2022-08-30T00:30:34;0.00;;;0.00;;
16300;SDS011;8258;51.020;4.248;2022-08-30T00:33:01;0.00;;;0.00;;
16300;SDS011;8258;51.020;4.248;2022-08-30T00:35:28;0.00;;;0.00;;
16300;SDS011;8258;51.020;4.248;2022-08-30T00:37:55;0.00;;;0.00;;
16300;SDS011;8258;51.020;4.248;2022-08-30T00:40:23;0.00;;;0.00;;
16300;SDS011;8258;51.020;4.248;2022-08-30T00:42:53;0.00;;;0.00;;
16300;SDS011;8258;51.020;4.248;2022-08-30T00:45:24;0.00;;;0.00;;
16300;SDS011;8258;51.020;4.248;2022-08-30T00:47:54;0.00;;;0.00;;
16300;SDS011;8258;51.020;4.248;2022-08-30T00:50:32;0.00;;;0.00;;
16300;SDS011;8258;51.020;4.248;2022-08-30T00:53:02;0.00;;;0.00;;
16300;SDS011;8258;51.020;4.248;2022-08-30T00:55:32;0.00;;;0.00;;
16300;SDS011;8258;51.020;4.248;2022-08-30T00:58:00;0.00;;;0.00;;
16300;SDS011;8258;51.020;4.248;2022-08-30T01:00:31;0.00;;;0.00;;
16300;SDS011;8258;51.020;4.248;2022-08-30T01:03:00;0.00;;;0.00;;
16300;SDS011;8258;51.020;4.248;2022-08-30T01:05:27;0.10;;;0.10;;
16300;SDS011;8258;51.020;4.248;2022-08-30T01:07:54;0.00;;;0.00;;
16300;SDS011;8258;51.020;4.248;2022-08-30T01:10:21;0.00;;;0.00;;
16300;SDS011;8258;51.020;4.248;2022-08-30T01:12:48;0.00;;;0.00;;
16300;SDS011;8258;51.020;4.248;2022-08-30T01:15:15;0.00;;;0.00;;
16300;SDS011;8258;51.020;4.248;2022-08-30T01:17:44;0.00;;;0.00;;
16300;SDS011;8258;51.020;4.248;2022-08-30T01:20:13;0.00;;;0.00;;
16300;SDS011;8258;51.020;4.248;2022-08-30T01:22:53;0.00;;;0.00;;
16300;SDS011;8258;51.020;4.248;2022-08-30T01:25:27;0.00;;;0.00;;
16300;SDS011;8258;51.020;4.248;2022-08-30T01:27:57;0.00;;;0.00;;
16300;SDS011;8258;51.020;4.248;2022-08-30T01:30:31;0.00;;;0.00;;
16300;SDS011;8258;51.020;4.248;2022-08-30T01:33:00;0.00;;;0.00;;
16300;SDS011;8258;51.020;4.248;2022-08-30T01:35:29;0.00;;;0.00;;
16300;SDS011;8258;51.020;4.248;2022-08-30T01:38:03;0.00;;;0.00;;
16300;SDS011;8258;51.020;4.248;2022-08-30T01:40:30;0.00;;;0.00;;
16300;SDS011;8258;51.020;4.248;2022-08-30T01:42:57;0.00;;;0.00;;
16300;SDS011;8258;51.020;4.248;2022-08-30T01:45:24;0.00;;;0.00;;
16300;SDS011;8258;51.020;4.248;2022-08-30T01:47:56;0.00;;;0.00;;
16300;SDS011;8258;51.020;4.248;2022-08-30T01:50:23;0.00;;;0.00;;
16300;SDS011;8258;51.020;4.248;2022-08-30T01:52:49;0.00;;;0.00;;
16300;SDS011;8258;51.020;4.248;2022-08-30T01:55:18;0.00;;;0.00;;
16300;SDS011;8258;51.020;4.248;2022-08-30T01:57:44;0.00;;;0.00;;
16300;SDS011;8258;51.020;4.248;2022-08-30T02:00:14;0.00;;;0.00;;
16300;SDS011;8258;51.020;4.248;2022-08-30T02:02:41;0.00;;;0.00;;
16300;SDS011;8258;51.020;4.248;2022-08-30T02:05:09;0.00;;;0.00;;
16300;SDS011;8258;51.020;4.248;2022-08-30T02:07:36;0.00;;;0.00;;
16300;SDS011;8258;51.020;4.248;2022-08-30T02:10:03;0.00;;;0.00;;
16300;SDS011;8258;51.020;4.248;2022-08-30T02:12:32;0.00;;;0.00;;
16300;SDS011;8258;51.020;4.248;2022-08-30T02:14:59;0.00;;;0.00;;
16300;SDS011;8258;51.020;4.248;2022-08-30T02:17:26;0.00;;;0.00;;
16300;SDS011;8258;51.020;4.248;2022-08-30T02:19:53;0.00;;;0.00;;
16300;SDS011;8258;51.020;4.248;2022-08-30T02:22:20;0.00;;;0.00;;
16300;SDS011;8258;51.020;4.248;2022-08-30T02:24:47;0.00;;;0.00;;
16300;SDS011;8258;51.020;4.248;2022-08-30T02:27:14;0.00;;;0.00;;
16300;SDS011;8258;51.020;4.248;2022-08-30T02:29:42;0.00;;;0.00;;
16300;SDS011;8258;51.020;4.248;2022-08-30T02:32:09;0.00;;;0.00;;
16300;SDS011;8258;51.020;4.248;2022-08-30T02:34:36;0.00;;;0.00;;
16300;SDS011;8258;51.020;4.248;2022-08-30T02:37:03;0.00;;;0.00;;
16300;SDS011;8258;51.020;4.248;2022-08-30T02:39:30;0.00;;;0.00;;
16300;SDS011;8258;51.020;4.248;2022-08-30T02:41:57;0.00;;;0.00;;
16300;SDS011;8258;51.020;4.248;2022-08-30T02:44:24;0.00;;;0.00;;
16300;SDS011;8258;51.020;4.248;2022-08-30T02:46:52;0.00;;;0.00;;
16300;SDS011;8258;51.020;4.248;2022-08-30T02:49:19;0.00;;;0.00;;
16300;SDS011;8258;51.020;4.248;2022-08-30T02:51:46;0.00;;;0.00;;
16300;SDS011;8258;51.020;4.248;2022-08-30T02:54:13;0.00;;;0.00;;
16300;SDS011;8258;51.020;4.248;2022-08-30T02:56:43;0.00;;;0.00;;
16300;SDS011;8258;51.020;4.248;2022-08-30T02:59:11;0.00;;;0.00;;
16300;SDS011;8258;51.020;4.248;2022-08-30T03:01:38;0.00;;;0.00;;
16300;SDS011;8258;51.020;4.248;2022-08-30T03:04:06;0.00;;;0.00;;
16300;SDS011;8258;51.020;4.248;2022-08-30T03:06:34;0.00;;;0.00;;
16300;SDS011;8258;51.020;4.248;2022-08-30T03:09:01;0.00;;;0.00;;
16300;SDS011;8258;51.020;4.248;2022-08-30T03:11:28;0.00;;;0.00;;
16300;SDS011;8258;51.020;4.248;2022-08-30T03:13:55;0.00;;;0.00;;
16300;SDS011;8258;51.020;4.248;2022-08-30T03:16:22;0.00;;;0.00;;
16300;SDS011;8258;51.020;4.248;2022-08-30T03:18:48;0.00;;;0.00;;
16300;SDS011;8258;51.020;4.248;2022-08-30T03:21:17;0.00;;;0.00;;
16300;SDS011;8258;51.020;4.248;2022-08-30T03:23:44;0.00;;;0.00;;
16300;SDS011;8258;51.020;4.248;2022-08-30T03:26:11;0.00;;;0.00;;
16300;SDS011;8258;51.020;4.248;2022-08-30T03:28:39;0.00;;;0.00;;
16300;SDS011;8258;51.020;4.248;2022-08-30T03:31:07;0.00;;;0.00;;
16300;SDS011;8258;51.020;4.248;2022-08-30T03:33:34;0.00;;;0.00;;
16300;SDS011;8258;51.020;4.248;2022-08-30T03:36:04;0.00;;;0.00;;
16300;SDS011;8258;51.020;4.248;2022-08-30T03:38:32;0.00;;;0.00;;
16300;SDS011;8258;51.020;4.248;2022-08-30T03:40:59;0.07;;;0.07;;
16300;SDS011;8258;51.020;4.248;2022-08-30T03:43:26;0.00;;;0.00;;
16300;SDS011;8258;51.020;4.248;2022-08-30T03:45:53;0.00;;;0.00;;
16300;SDS011;8258;51.020;4.248;2022-08-30T03:48:20;0.00;;;0.00;;
16300;SDS011;8258;51.020;4.248;2022-08-30T03:50:47;0.00;;;0.00;;
16300;SDS011;8258;51.020;4.248;2022-08-30T03:53:14;0.00;;;0.00;;
16300;SDS011;8258;51.020;4.248;2022-08-30T03:55:42;0.00;;;0.00;;
16300;SDS011;8258;51.020;4.248;2022-08-30T03:58:09;0.00;;;0.00;;
16300;SDS011;8258;51.020;4.248;2022-08-30T04:00:36;0.00;;;0.00;;
16300;SDS011;8258;51.020;4.248;2022-08-30T04:03:04;0.00;;;0.00;;
16300;SDS011;8258;51.020;4.248;2022-08-30T04:05:31;0.00;;;0.00;;
16300;SDS011;8258;51.020;4.248;2022-08-30T04:07:57;0.00;;;0.00;;
16300;SDS011;8258;51.020;4.248;2022-08-30T04:10:24;0.00;;;0.00;;
16300;SDS011;8258;51.020;4.248;2022-08-30T04:12:52;0.00;;;0.00;;
16300;SDS011;8258;51.020;4.248;2022-08-30T04:15:20;0.00;;;0.00;;
16300;SDS011;8258;51.020;4.248;2022-08-30T04:17:47;0.00;;;0.00;;
16300;SDS011;8258;51.020;4.248;2022-08-30T04:20:15;0.00;;;0.00;;
16300;SDS011;8258;51.020;4.248;2022-08-30T04:22:42;0.00;;;0.00;;
16300;SDS011;8258;51.020;4.248;2022-08-30T04:25:09;0.00;;;0.00;;
16300;SDS011;8258;51.020;4.248;2022-08-30T04:27:37;0.00;;;0.00;;
16300;SDS011;8258;51.020;4.248;2022-08-30T04:30:06;0.00;;;0.00;;
16300;SDS011;8258;51.020;4.248;2022-08-30T04:32:34;0.00;;;0.00;;
16300;SDS011;8258;51.020;4.248;2022-08-30T04:35:02;0.00;;;0.00;;
16300;SDS011;8258;51.020;4.248;2022-08-30T04:37:30;0.00;;;0.00;;
16300;SDS011;8258;51.020;4.248;2022-08-30T04:39:57;0.00;;;0.00;;
16300;SDS011;8258;51.020;4.248;2022-08-30T04:42:25;0.00;;;0.00;;
16300;SDS011;8258;51.020;4.248;2022-08-30T04:44:55;0.00;;;0.00;;
16300;SDS011;8258;51.020;4.248;2022-08-30T04:47:23;0.00;;;0.00;;
16300;SDS011;8258;51.020;4.248;2022-08-30T04:49:50;0.00;;;0.00;;
16300;SDS011;8258;51.020;4.248;2022-08-30T04:52:18;1.10;;;1.10;;
16300;SDS011;8258;51.020;4.248;2022-08-30T04:54:44;0.00;;;0.00;;
16300;SDS011;8258;51.020;4.248;2022-08-30T04:57:11;0.00;;;0.00;;
16300;SDS011;8258;51.020;4.248;2022-08-30T04:59:38;0.00;;;0.00;;
16300;SDS011;8258;51.020;4.248;2022-08-30T05:02:05;0.00;;;0.00;;
16300;SDS011;8258;51.020;4.248;2022-08-30T05:04:34;0.00;;;0.00;;
16300;SDS011;8258;51.020;4.248;2022-08-30T05:07:01;0.00;;;0.00;;
16300;SDS011;8258;51.020;4.248;2022-08-30T05:09:28;0.00;;;0.00;;
16300;SDS011;8258;51.020;4.248;2022-08-30T05:11:55;0.03;;;0.03;;
16300;SDS011;8258;51.020;4.248;2022-08-30T05:14:22;0.00;;;0.00;;
16300;SDS011;8258;51.020;4.248;2022-08-30T05:16:49;0.00;;;0.00;;
16300;SDS011;8258;51.020;4.248;2022-08-30T05:19:16;0.00;;;0.00;;
16300;SDS011;8258;51.020;4.248;2022-08-30T05:21:44;0.00;;;0.00;;
16300;SDS011;8258;51.020;4.248;2022-08-30T05:24:11;0.00;;;0.00;;
16300;SDS011;8258;51.020;4.248;2022-08-30T05:26:38;0.00;;;0.00;;
16300;SDS011;8258;51.020;4.248;2022-08-30T05:29:05;0.00;;;0.00;;
16300;SDS011;8258;51.020;4.248;2022-08-30T05:31:33;0.00;;;0.00;;
16300;SDS011;8258;51.020;4.248;2022-08-30T05:34:01;0.00;;;0.00;;
16300;SDS011;8258;51.020;4.248;2022-08-30T05:36:29;0.00;;;0.00;;
16300;SDS011;8258;51.020;4.248;2022-08-30T05:39:00;0.00;;;0.00;;
16300;SDS011;8258;51.020;4.248;2022-08-30T05:41:28;0.00;;;0.00;;
16300;SDS011;8258;51.020;4.248;2022-08-30T05:43:56;0.00;;;0.00;;
16300;SDS011;8258;51.020;4.248;2022-08-30T05:46:24;0.00;;;0.00;;
16300;SDS011;8258;51.020;4.248;2022-08-30T05:48:53;0.00;;;0.00;;
16300;SDS011;8258;51.020;4.248;2022-08-30T05:51:22;0.00;;;0.00;;
16300;SDS011;8258;51.020;4.248;2022-08-30T05:53:51;0.00;;;0.00;;
16300;SDS011;8258;51.020;4.248;2022-08-30T05:56:21;0.00;;;0.00;;
16300;SDS011;8258;51.020;4.248;2022-08-30T05:58:49;0.00;;;0.00;;
16300;SDS011;8258;51.020;4.248;2022-08-30T06:01:20;0.00;;;0.00;;
16300;SDS011;8258;51.020;4.248;2022-08-30T06:03:49;0.00;;;0.00;;
16300;SDS011;8258;51.020;4.248;2022-08-30T06:06:16;0.00;;;0.00;;
16300;SDS011;8258;51.020;4.248;2022-08-30T06:08:43;0.00;;;0.00;;
16300;SDS011;8258;51.020;4.248;2022-08-30T06:11:11;0.00;;;0.00;;
16300;SDS011;8258;51.020;4.248;2022-08-30T06:13:40;0.27;;;0.27;;
16300;SDS011;8258;51.020;4.248;2022-08-30T06:16:07;0.10;;;0.10;;
16300;SDS011;8258;51.020;4.248;2022-08-30T06:18:36;0.00;;;0.00;;
16300;SDS011;8258;51.020;4.248;2022-08-30T06:21:03;0.27;;;0.27;;
16300;SDS011;8258;51.020;4.248;2022-08-30T06:23:30;0.00;;;0.00;;
16300;SDS011;8258;51.020;4.248;2022-08-30T06:26:02;0.00;;;0.00;;
16300;SDS011;8258;51.020;4.248;2022-08-30T06:28:30;0.00;;;0.00;;
16300;SDS011;8258;51.020;4.248;2022-08-30T06:30:58;0.00;;;0.00;;
16300;SDS011;8258;51.020;4.248;2022-08-30T06:33:25;0.00;;;0.00;;
16300;SDS011;8258;51.020;4.248;2022-08-30T06:35:52;0.20;;;0.10;;
16300;SDS011;8258;51.020;4.248;2022-08-30T06:38:19;0.00;;;0.00;;
16300;SDS011;8258;51.020;4.248;2022-08-30T06:40:46;0.00;;;0.00;;
16300;SDS011;8258;51.020;4.248;2022-08-30T06:43:15;0.00;;;0.00;;
16300;SDS011;8258;51.020;4.248;2022-08-30T06:45:42;0.00;;;0.00;;
16300;SDS011;8258;51.020;4.248;2022-08-30T06:48:10;0.00;;;0.00;;
16300;SDS011;8258;51.020;4.248;2022-08-30T06:50:37;0.00;;;0.00;;
16300;SDS011;8258;51.020;4.248;2022-08-30T06:53:06;0.00;;;0.00;;
16300;SDS011;8258;51.020;4.248;2022-08-30T06:55:33;0.00;;;0.00;;
16300;SDS011;8258;51.020;4.248;2022-08-30T06:58:00;0.00;;;0.00;;
16300;SDS011;8258;51.020;4.248;2022-08-30T07:00:28;0.00;;;0.00;;
16300;SDS011;8258;51.020;4.248;2022-08-30T07:02:55;0.00;;;0.00;;
16300;SDS011;8258;51.020;4.248;2022-08-30T07:05:23;0.00;;;0.00;;
16300;SDS011;8258;51.020;4.248;2022-08-30T07:07:50;1.90;;;0.33;;
16300;SDS011;8258;51.020;4.248;2022-08-30T07:10:18;0.00;;;0.00;;
16300;SDS011;8258;51.020;4.248;2022-08-30T07:12:46;0.00;;;0.00;;
16300;SDS011;8258;51.020;4.248;2022-08-30T07:15:13;0.10;;;0.10;;
16300;SDS011;8258;51.020;4.248;2022-08-30T07:17:44;0.10;;;0.10;;
16300;SDS011;8258;51.020;4.248;2022-08-30T07:20:30;0.00;;;0.00;;
16300;SDS011;8258;51.020;4.248;2022-08-30T07:22:57;0.00;;;0.00;;
16300;SDS011;8258;51.020;4.248;2022-08-30T07:25:24;0.00;;;0.00;;
16300;SDS011;8258;51.020;4.248;2022-08-30T07:27:51;0.00;;;0.00;;
16300;SDS011;8258;51.020;4.248;2022-08-30T07:30:18;0.30;;;0.30;;
16300;SDS011;8258;51.020;4.248;2022-08-30T07:32:45;0.00;;;0.00;;
16300;SDS011;8258;51.020;4.248;2022-08-30T07:35:13;0.10;;;0.10;;
16300;SDS011;8258;51.020;4.248;2022-08-30T07:37:41;0.00;;;0.00;;
16300;SDS011;8258;51.020;4.248;2022-08-30T07:40:08;0.00;;;0.00;;
16300;SDS011;8258;51.020;4.248;2022-08-30T07:42:36;0.00;;;0.00;;
16300;SDS011;8258;51.020;4.248;2022-08-30T07:45:05;0.20;;;0.20;;
16300;SDS011;8258;51.020;4.248;2022-08-30T07:47:32;0.00;;;0.00;;
16300;SDS011;8258;51.020;4.248;2022-08-30T07:49:59;0.00;;;0.00;;
16300;SDS011;8258;51.020;4.248;2022-08-30T07:52:27;0.50;;;0.43;;
16300;SDS011;8258;51.020;4.248;2022-08-30T07:54:56;0.00;;;0.00;;
16300;SDS011;8258;51.020;4.248;2022-08-30T07:57:23;0.00;;;0.00;;
16300;SDS011;8258;51.020;4.248;2022-08-30T07:59:51;0.00;;;0.00;;
16300;SDS011;8258;51.020;4.248;2022-08-30T08:02:19;0.10;;;0.10;;
16300;SDS011;8258;51.020;4.248;2022-08-30T08:04:46;0.20;;;0.20;;
16300;SDS011;8258;51.020;4.248;2022-08-30T08:07:13;0.37;;;0.20;;
16300;SDS011;8258;51.020;4.248;2022-08-30T08:09:40;0.00;;;0.00;;
16300;SDS011;8258;51.020;4.248;2022-08-30T08:12:08;0.10;;;0.10;;
16300;SDS011;8258;51.020;4.248;2022-08-30T08:14:35;0.10;;;0.10;;
16300;SDS011;8258;51.020;4.248;2022-08-30T08:17:03;0.10;;;0.10;;
16300;SDS011;8258;51.020;4.248;2022-08-30T08:19:30;0.10;;;0.10;;
16300;SDS011;8258;51.020;4.248;2022-08-30T08:21:57;0.10;;;0.10;;
16300;SDS011;8258;51.020;4.248;2022-08-30T08:24:24;0.10;;;0.10;;
16300;SDS011;8258;51.020;4.248;2022-08-30T08:26:52;0.10;;;0.10;;
16300;SDS011;8258;51.020;4.248;2022-08-30T08:29:21;0.10;;;0.10;;
16300;SDS011;8258;51.020;4.248;2022-08-30T08:31:49;0.30;;;0.30;;
16300;SDS011;8258;51.020;4.248;2022-08-30T08:34:16;0.10;;;0.10;;
16300;SDS011;8258;51.020;4.248;2022-08-30T08:36:47;0.10;;;0.10;;
16300;SDS011;8258;51.020;4.248;2022-08-30T08:39:14;0.10;;;0.10;;
16300;SDS011;8258;51.020;4.248;2022-08-30T08:41:47;0.10;;;0.10;;
16300;SDS011;8258;51.020;4.248;2022-08-30T08:44:22;0.53;;;0.40;;
16300;SDS011;8258;51.020;4.248;2022-08-30T08:46:59;0.20;;;0.20;;
16300;SDS011;8258;51.020;4.248;2022-08-30T08:49:32;0.10;;;0.10;;
16300;SDS011;8258;51.020;4.248;2022-08-30T08:52:01;0.10;;;0.10;;
16300;SDS011;8258;51.020;4.248;2022-08-30T08:54:48;0.30;;;0.30;;
16300;SDS011;8258;51.020;4.248;2022-08-30T08:57:20;0.10;;;0.10;;
16300;SDS011;8258;51.020;4.248;2022-08-30T08:59:48;0.20;;;0.20;;
16300;SDS011;8258;51.020;4.248;2022-08-30T09:02:21;0.17;;;0.17;;
16300;SDS011;8258;51.020;4.248;2022-08-30T09:04:49;0.40;;;0.40;;
16300;SDS011;8258;51.020;4.248;2022-08-30T09:07:20;0.20;;;0.20;;
16300;SDS011;8258;51.020;4.248;2022-08-30T09:09:49;0.20;;;0.20;;
16300;SDS011;8258;51.020;4.248;2022-08-30T09:12:16;0.30;;;0.30;;
16300;SDS011;8258;51.020;4.248;2022-08-30T09:14:45;0.20;;;0.20;;
16300;SDS011;8258;51.020;4.248;2022-08-30T09:17:17;0.43;;;0.43;;
16300;SDS011;8258;51.020;4.248;2022-08-30T09:19:55;0.30;;;0.30;;
16300;SDS011;8258;51.020;4.248;2022-08-30T09:22:24;0.20;;;0.20;;
16300;SDS011;8258;51.020;4.248;2022-08-30T09:24:58;0.20;;;0.20;;
16300;SDS011;8258;51.020;4.248;2022-08-30T09:27:30;0.30;;;0.30;;
16300;SDS011;8258;51.020;4.248;2022-08-30T09:30:02;0.20;;;0.20;;
16300;SDS011;8258;51.020;4.248;2022-08-30T09:32:33;0.60;;;0.60;;
16300;SDS011;8258;51.020;4.248;2022-08-30T09:35:05;0.20;;;0.20;;
16300;SDS011;8258;51.020;4.248;2022-08-30T09:37:37;0.67;;;0.67;;
16300;SDS011;8258;51.020;4.248;2022-08-30T09:40:11;0.27;;;0.27;;
16300;SDS011;8258;51.020;4.248;2022-08-30T09:42:41;0.20;;;0.20;;
16300;SDS011;8258;51.020;4.248;2022-08-30T09:45:29;0.30;;;0.30;;
16300;SDS011;8258;51.020;4.248;2022-08-30T09:47:58;0.20;;;0.20;;
16300;SDS011;8258;51.020;4.248;2022-08-30T09:50:26;0.13;;;0.13;;
16300;SDS011;8258;51.020;4.248;2022-08-30T09:53:02;0.30;;;0.30;;
16300;SDS011;8258;51.020;4.248;2022-08-30T09:55:42;0.20;;;0.20;;
16300;SDS011;8258;51.020;4.248;2022-08-30T09:58:28;0.20;;;0.20;;
16300;SDS011;8258;51.020;4.248;2022-08-30T10:01:08;0.13;;;0.13;;
16300;SDS011;8258;51.020;4.248;2022-08-30T10:03:40;1.23;;;1.23;;
16300;SDS011;8258;51.020;4.248;2022-08-30T10:06:19;0.43;;;0.43;;
16300;SDS011;8258;51.020;4.248;2022-08-30T10:08:54;0.23;;;0.23;;
16300;SDS011;8258;51.020;4.248;2022-08-30T10:11:31;0.20;;;0.20;;
16300;SDS011;8258;51.020;4.248;2022-08-30T10:14:15;0.30;;;0.30;;
16300;SDS011;8258;51.020;4.248;2022-08-30T10:16:55;0.80;;;0.80;;
16300;SDS011;8258;51.020;4.248;2022-08-30T10:19:30;0.30;;;0.30;;
16300;SDS011;8258;51.020;4.248;2022-08-30T10:22:09;0.30;;;0.30;;
16300;SDS011;8258;51.020;4.248;2022-08-30T10:24:42;0.20;;;0.20;;
16300;SDS011;8258;51.020;4.248;2022-08-30T10:27:15;0.27;;;0.27;;
16300;SDS011;8258;51.020;4.248;2022-08-30T10:29:46;0.40;;;0.40;;
16300;SDS011;8258;51.020;4.248;2022-08-30T10:32:19;0.30;;;0.30;;
16300;SDS011;8258;51.020;4.248;2022-08-30T10:34:50;0.67;;;0.67;;
16300;SDS011;8258;51.020;4.248;2022-08-30T10:37:22;0.20;;;0.20;;
16300;SDS011;8258;51.020;4.248;2022-08-30T10:39:52;0.40;;;0.40;;
16300;SDS011;8258;51.020;4.248;2022-08-30T10:42:23;0.20;;;0.20;;
16300;SDS011;8258;51.020;4.248;2022-08-30T10:44:54;0.20;;;0.20;;
16300;SDS011;8258;51.020;4.248;2022-08-30T10:47:29;0.40;;;0.40;;
16300;SDS011;8258;51.020;4.248;2022-08-30T10:50:04;0.20;;;0.20;;
16300;SDS011;8258;51.020;4.248;2022-08-30T10:52:37;0.20;;;0.20;;
16300;SDS011;8258;51.020;4.248;2022-08-30T10:55:09;0.20;;;0.20;;
16300;SDS011;8258;51.020;4.248;2022-08-30T10:57:39;0.20;;;0.20;;
16300;SDS011;8258;51.020;4.248;2022-08-30T11:00:07;0.20;;;0.20;;
16300;SDS011;8258;51.020;4.248;2022-08-30T11:08:44;0.20;;;0.20;;
16300;SDS011;8258;51.020;4.248;2022-08-30T11:11:34;0.20;;;0.20;;
16300;SDS011;8258;51.020;4.248;2022-08-30T11:14:10;0.20;;;0.20;;
16300;SDS011;8258;51.020;4.248;2022-08-30T11:16:42;0.20;;;0.20;;
16300;SDS011;8258;51.020;4.248;2022-08-30T11:19:15;0.20;;;0.20;;
16300;SDS011;8258;51.020;4.248;2022-08-30T11:21:46;0.80;;;0.80;;
16300;SDS011;8258;51.020;4.248;2022-08-30T11:24:15;0.30;;;0.30;;
16300;SDS011;8258;51.020;4.248;2022-08-30T11:26:52;0.33;;;0.33;;
16300;SDS011;8258;51.020;4.248;2022-08-30T11:29:36;0.30;;;0.30;;
16300;SDS011;8258;51.020;4.248;2022-08-30T11:32:20;0.40;;;0.40;;
16300;SDS011;8258;51.020;4.248;2022-08-30T11:35:10;0.60;;;0.60;;
16300;SDS011;8258;51.020;4.248;2022-08-30T11:38:00;0.67;;;0.67;;
16300;SDS011;8258;51.020;4.248;2022-08-30T11:40:42;0.40;;;0.40;;
16300;SDS011;8258;51.020;4.248;2022-08-30T11:46:15;1.13;;;1.13;;
16300;SDS011;8258;51.020;4.248;2022-08-30T11:48:49;0.40;;;0.40;;
16300;SDS011;8258;51.020;4.248;2022-08-30T11:51:24;0.50;;;0.50;;
16300;SDS011;8258;51.020;4.248;2022-08-30T11:54:20;0.40;;;0.40;;
16300;SDS011;8258;51.020;4.248;2022-08-30T11:56:59;0.30;;;0.30;;
16300;SDS011;8258;51.020;4.248;2022-08-30T11:59:33;0.30;;;0.30;;
16300;SDS011;8258;51.020;4.248;2022-08-30T12:08:11;0.50;;;0.50;;
16300;SDS011;8258;51.020;4.248;2022-08-30T12:14:08;0.40;;;0.40;;
16300;SDS011;8258;51.020;4.248;2022-08-30T12:17:01;0.33;;;0.33;;
16300;SDS011;8258;51.020;4.248;2022-08-30T12:19:52;0.30;;;0.30;;
16300;SDS011;8258;51.020;4.248;2022-08-30T12:22:21;0.30;;;0.30;;
16300;SDS011;8258;51.020;4.248;2022-08-30T12:24:50;0.40;;;0.40;;
16300;SDS011;8258;51.020;4.248;2022-08-30T12:27:23;0.50;;;0.50;;
16300;SDS011;8258;51.020;4.248;2022-08-30T12:29:52;0.50;;;0.50;;
16300;SDS011;8258;51.020;4.248;2022-08-30T12:32:20;0.40;;;0.40;;
16300;SDS011;8258;51.020;4.248;2022-08-30T12:34:48;0.43;;;0.43;;
16300;SDS011;8258;51.020;4.248;2022-08-30T12:37:19;0.43;;;0.43;;
16300;SDS011;8258;51.020;4.248;2022-08-30T12:39:48;0.40;;;0.40;;
16300;SDS011;8258;51.020;4.248;2022-08-30T12:42:29;0.30;;;0.30;;
16300;SDS011;8258;51.020;4.248;2022-08-30T12:44:58;0.30;;;0.30;;
16300;SDS011;8258;51.020;4.248;2022-08-30T12:47:27;0.53;;;0.53;;
16300;SDS011;8258;51.020;4.248;2022-08-30T12:50:03;0.43;;;0.43;;
16300;SDS011;8258;51.020;4.248;2022-08-30T12:52:33;0.57;;;0.57;;
16300;SDS011;8258;51.020;4.248;2022-08-30T12:55:09;0.60;;;0.60;;
16300;SDS011;8258;51.020;4.248;2022-08-30T12:57:40;0.83;;;0.83;;
16300;SDS011;8258;51.020;4.248;2022-08-30T13:00:08;0.57;;;0.57;;
16300;SDS011;8258;51.020;4.248;2022-08-30T13:02:44;0.50;;;0.50;;
16300;SDS011;8258;51.020;4.248;2022-08-30T13:08:16;0.50;;;0.50;;
16300;SDS011;8258;51.020;4.248;2022-08-30T13:10:51;2.20;;;0.87;;
16300;SDS011;8258;51.020;4.248;2022-08-30T13:13:27;0.80;;;0.80;;
16300;SDS011;8258;51.020;4.248;2022-08-30T13:16:05;0.60;;;0.60;;
16300;SDS011;8258;51.020;4.248;2022-08-30T13:18:50;0.80;;;0.80;;
16300;SDS011;8258;51.020;4.248;2022-08-30T13:21:23;0.60;;;0.60;;
16300;SDS011;8258;51.020;4.248;2022-08-30T13:23:54;1.03;;;1.03;;
16300;SDS011;8258;51.020;4.248;2022-08-30T13:26:24;0.50;;;0.50;;
16300;SDS011;8258;51.020;4.248;2022-08-30T13:28:52;0.70;;;0.70;;
16300;SDS011;8258;51.020;4.248;2022-08-30T13:31:21;0.60;;;0.60;;
16300;SDS011;8258;51.020;4.248;2022-08-30T13:33:49;0.60;;;0.60;;
16300;SDS011;8258;51.020;4.248;2022-08-30T13:36:18;1.37;;;1.37;;
16300;SDS011;8258;51.020;4.248;2022-08-30T13:38:46;0.70;;;0.70;;
16300;SDS011;8258;51.020;4.248;2022-08-30T13:41:13;0.60;;;0.60;;
16300;SDS011;8258;51.020;4.248;2022-08-30T13:43:42;0.90;;;0.90;;
16300;SDS011;8258;51.020;4.248;2022-08-30T13:46:09;0.60;;;0.60;;
16300;SDS011;8258;51.020;4.248;2022-08-30T13:48:37;1.27;;;1.27;;
16300;SDS011;8258;51.020;4.248;2022-08-30T13:51:04;0.70;;;0.70;;
16300;SDS011;8258;51.020;4.248;2022-08-30T13:53:33;0.50;;;0.50;;
16300;SDS011;8258;51.020;4.248;2022-08-30T13:56:00;0.30;;;0.30;;
16300;SDS011;8258;51.020;4.248;2022-08-30T13:58:28;1.30;;;0.93;;
16300;SDS011;8258;51.020;4.248;2022-08-30T14:00:57;0.40;;;0.40;;
16300;SDS011;8258;51.020;4.248;2022-08-30T14:03:24;0.50;;;0.50;;
16300;SDS011;8258;51.020;4.248;2022-08-30T14:05:51;0.40;;;0.40;;
16300;SDS011;8258;51.020;4.248;2022-08-30T14:08:19;0.40;;;0.40;;
16300;SDS011;8258;51.020;4.248;2022-08-30T14:10:51;0.40;;;0.40;;
16300;SDS011;8258;51.020;4.248;2022-08-30T14:13:18;0.40;;;0.40;;
16300;SDS011;8258;51.020;4.248;2022-08-30T14:15:45;0.43;;;0.43;;
16300;SDS011;8258;51.020;4.248;2022-08-30T14:18:14;0.47;;;0.47;;
16300;SDS011;8258;51.020;4.248;2022-08-30T14:20:41;0.50;;;0.50;;
16300;SDS011;8258;51.020;4.248;2022-08-30T14:23:08;0.50;;;0.50;;
16300;SDS011;8258;51.020;4.248;2022-08-30T14:25:37;0.57;;;0.57;;
16300;SDS011;8258;51.020;4.248;2022-08-30T14:28:05;0.40;;;0.40;;
16300;SDS011;8258;51.020;4.248;2022-08-30T14:30:32;0.40;;;0.40;;
16300;SDS011;8258;51.020;4.248;2022-08-30T14:32:58;0.50;;;0.50;;
16300;SDS011;8258;51.020;4.248;2022-08-30T14:35:27;0.50;;;0.50;;
16300;SDS011;8258;51.020;4.248;2022-08-30T14:37:54;0.43;;;0.43;;
16300;SDS011;8258;51.020;4.248;2022-08-30T14:40:21;0.57;;;0.57;;
16300;SDS011;8258;51.020;4.248;2022-08-30T14:42:47;0.50;;;0.50;;
16300;SDS011;8258;51.020;4.248;2022-08-30T14:45:15;0.50;;;0.50;;
16300;SDS011;8258;51.020;4.248;2022-08-30T14:47:42;0.50;;;0.50;;
16300;SDS011;8258;51.020;4.248;2022-08-30T14:50:09;0.40;;;0.40;;
16300;SDS011;8258;51.020;4.248;2022-08-30T14:52:37;0.40;;;0.40;;
16300;SDS011;8258;51.020;4.248;2022-08-30T14:55:05;0.50;;;0.50;;
16300;SDS011;8258;51.020;4.248;2022-08-30T14:57:33;0.30;;;0.30;;
16300;SDS011;8258;51.020;4.248;2022-08-30T15:00:01;0.30;;;0.30;;
16300;SDS011;8258;51.020;4.248;2022-08-30T15:02:29;0.60;;;0.60;;
16300;SDS011;8258;51.020;4.248;2022-08-30T15:04:56;0.70;;;0.70;;
16300;SDS011;8258;51.020;4.248;2022-08-30T15:07:22;0.40;;;0.40;;
16300;SDS011;8258;51.020;4.248;2022-08-30T15:09:51;0.33;;;0.33;;
16300;SDS011;8258;51.020;4.248;2022-08-30T15:12:18;0.30;;;0.30;;
16300;SDS011;8258;51.020;4.248;2022-08-30T15:14:44;0.40;;;0.40;;
16300;SDS011;8258;51.020;4.248;2022-08-30T15:17:11;0.40;;;0.40;;
16300;SDS011;8258;51.020;4.248;2022-08-30T15:19:38;0.60;;;0.60;;
16300;SDS011;8258;51.020;4.248;2022-08-30T15:22:05;0.40;;;0.40;;
16300;SDS011;8258;51.020;4.248;2022-08-30T15:24:33;0.40;;;0.40;;
16300;SDS011;8258;51.020;4.248;2022-08-30T15:27:02;0.40;;;0.40;;
16300;SDS011;8258;51.020;4.248;2022-08-30T15:29:29;0.40;;;0.40;;
16300;SDS011;8258;51.020;4.248;2022-08-30T15:31:56;0.60;;;0.60;;
16300;SDS011;8258;51.020;4.248;2022-08-30T15:34:23;0.40;;;0.40;;
16300;SDS011;8258;51.020;4.248;2022-08-30T15:36:50;0.30;;;0.30;;